sensor_id;sensor_type;location;lat;lon;timestamp;pressure;altitude;pressure_sealevel;temperature;humidity
32735;BME280;19112;51.076;3.706;2022-09-09T00:04:36;100645.13;;;17.13;96.16
32735;BME280;19112;51.076;3.706;2022-09-09T00:10:22;100481.31;;;16.27;96.36
32735;BME280;19112;51.076;3.706;2022-09-09T00:13:25;100418.44;;;15.86;95.98
32735;BME280;19112;51.076;3.706;2022-09-09T00:16:04;100607.03;;;16.90;96.34
32735;BME280;19112;51.076;3.706;2022-09-09T00:22:33;100582.28;;;16.89;95.72
32735;BME280;19112;51.076;3.706;2022-09-09T00:24:51;100616.81;;;17.11;95.62
32735;BME280;19112;51.076;3.706;2022-09-09T00:27:48;100624.75;;;17.09;96.02
32735;BME280;19112;51.076;3.706;2022-09-09T00:30:18;100608.84;;;17.06;94.45
32735;BME280;19112;51.076;3.706;2022-09-09T00:32:51;100311.44;;;15.32;93.15
32735;BME280;19112;51.076;3.706;2022-09-09T00:35:33;100434.41;;;16.00;94.48
32735;BME280;19112;51.076;3.706;2022-09-09T00:38:15;100587.56;;;16.92;92.84
32735;BME280;19112;51.076;3.706;2022-09-09T00:40:55;100539.72;;;16.60;93.15
32735;BME280;19112;51.076;3.706;2022-09-09T00:43:31;100522.91;;;16.52;93.12
32735;BME280;19112;51.076;3.706;2022-09-09T00:54:48;100492.81;;;16.30;92.17
32735;BME280;19112;51.076;3.706;2022-09-09T00:57:35;100467.06;;;16.00;93.58
32735;BME280;19112;51.076;3.706;2022-09-09T01:00:26;100574.28;;;16.82;94.05
32735;BME280;19112;51.076;3.706;2022-09-09T01:09:22;100563.69;;;16.79;93.06
32735;BME280;19112;51.076;3.706;2022-09-09T01:12:15;100449.44;;;16.08;94.00
32735;BME280;19112;51.076;3.706;2022-09-09T01:14:50;100559.19;;;16.65;94.19
32735;BME280;19112;51.076;3.706;2022-09-09T01:20:21;100550.31;;;16.62;93.69
32735;BME280;19112;51.076;3.706;2022-09-09T01:28:47;100489.22;;;16.14;94.92
32735;BME280;19112;51.076;3.706;2022-09-09T01:31:37;100386.44;;;15.41;94.47
32735;BME280;19112;51.076;3.706;2022-09-09T01:34:13;100384.75;;;15.59;94.56
32735;BME280;19112;51.076;3.706;2022-09-09T01:37:06;100542.34;;;16.46;95.02
32735;BME280;19112;51.076;3.706;2022-09-09T01:39:34;100114.19;;;14.00;93.33
32735;BME280;19112;51.076;3.706;2022-09-09T01:42:02;100210.53;;;14.52;93.68
32735;BME280;19112;51.076;3.706;2022-09-09T01:44:30;100480.31;;;16.03;94.58
32735;BME280;19112;51.076;3.706;2022-09-09T01:46:56;100005.44;;;13.25;93.78
32735;BME280;19112;51.076;3.706;2022-09-09T01:49:22;100482.06;;;16.00;94.38
32735;BME280;19112;51.076;3.706;2022-09-09T01:51:52;100566.13;;;16.39;94.27
32735;BME280;19112;51.076;3.706;2022-09-09T01:54:20;100243.22;;;14.65;93.70
32735;BME280;19112;51.076;3.706;2022-09-09T01:56:57;100329.88;;;15.19;93.81
32735;BME280;19112;51.076;3.706;2022-09-09T01:59:53;100358.13;;;15.27;94.83
32735;BME280;19112;51.076;3.706;2022-09-09T02:02:30;100490.84;;;15.91;95.03
32735;BME280;19112;51.076;3.706;2022-09-09T02:05:30;100408.56;;;15.57;96.11
32735;BME280;19112;51.076;3.706;2022-09-09T02:13:23;100462.59;;;15.90;94.64
32735;BME280;19112;51.076;3.706;2022-09-09T02:16:03;100538.75;;;16.38;94.52
32735;BME280;19112;51.076;3.706;2022-09-09T02:21:24;100300.63;;;14.92;95.40
32735;BME280;19112;51.076;3.706;2022-09-09T02:23:54;100304.13;;;14.91;96.18
32735;BME280;19112;51.076;3.706;2022-09-09T02:26:22;100505.03;;;16.08;97.59
32735;BME280;19112;51.076;3.706;2022-09-09T02:28:51;100424.50;;;15.63;97.41
32735;BME280;19112;51.076;3.706;2022-09-09T02:31:21;100453.78;;;15.95;97.65
32735;BME280;19112;51.076;3.706;2022-09-09T02:33:54;100529.94;;;16.42;97.87
32735;BME280;19112;51.076;3.706;2022-09-09T02:36:24;100345.00;;;15.48;97.37
32735;BME280;19112;51.076;3.706;2022-09-09T02:38:51;100026.00;;;13.64;97.25
32735;BME280;19112;51.076;3.706;2022-09-09T02:41:35;100533.50;;;16.55;97.97
32735;BME280;19112;51.076;3.706;2022-09-09T02:44:11;100473.34;;;16.20;97.94
32735;BME280;19112;51.076;3.706;2022-09-09T02:49:32;100458.31;;;16.21;97.75
32735;BME280;19112;51.076;3.706;2022-09-09T02:52:15;100336.22;;;15.52;97.83
32735;BME280;19112;51.076;3.706;2022-09-09T02:54:44;100470.72;;;16.33;97.79
32735;BME280;19112;51.076;3.706;2022-09-09T02:57:16;100548.59;;;16.68;97.77
32735;BME280;19112;51.076;3.706;2022-09-09T02:59:43;100052.53;;;13.90;98.28
32735;BME280;19112;51.076;3.706;2022-09-09T03:02:11;100520.28;;;16.60;97.37
32735;BME280;19112;51.076;3.706;2022-09-09T03:04:39;99974.81;;;13.38;96.70
32735;BME280;19112;51.076;3.706;2022-09-09T03:07:06;100235.44;;;14.94;96.63
32735;BME280;19112;51.076;3.706;2022-09-09T03:09:31;100268.16;;;15.17;96.02
32735;BME280;19112;51.076;3.706;2022-09-09T03:11:58;100425.56;;;16.02;95.63
32735;BME280;19112;51.076;3.706;2022-09-09T03:14:24;100256.66;;;15.03;95.24
32735;BME280;19112;51.076;3.706;2022-09-09T03:16:54;100406.09;;;15.86;96.31
32735;BME280;19112;51.076;3.706;2022-09-09T03:19:20;100231.84;;;14.84;96.27
32735;BME280;19112;51.076;3.706;2022-09-09T03:21:47;100536.16;;;16.52;97.16
32735;BME280;19112;51.076;3.706;2022-09-09T03:24:13;100385.75;;;15.75;96.13
32735;BME280;19112;51.076;3.706;2022-09-09T03:26:40;100282.31;;;15.24;96.56
32735;BME280;19112;51.076;3.706;2022-09-09T03:29:07;100491.97;;;16.48;96.72
32735;BME280;19112;51.076;3.706;2022-09-09T03:31:34;100205.44;;;14.83;96.59
32735;BME280;19112;51.076;3.706;2022-09-09T03:34:01;100034.03;;;13.84;96.28
32735;BME280;19112;51.076;3.706;2022-09-09T03:36:28;100397.34;;;16.01;97.26
32735;BME280;19112;51.076;3.706;2022-09-09T03:38:54;100493.75;;;16.50;97.39
32735;BME280;19112;51.076;3.706;2022-09-09T03:41:21;100287.72;;;15.53;97.49
32735;BME280;19112;51.076;3.706;2022-09-09T03:43:53;100041.28;;;14.17;97.21
32735;BME280;19112;51.076;3.706;2022-09-09T03:46:23;100263.91;;;15.52;97.36
32735;BME280;19112;51.076;3.706;2022-09-09T03:48:50;100190.56;;;15.11;97.15
32735;BME280;19112;51.076;3.706;2022-09-09T03:51:16;100486.81;;;16.79;97.30
32735;BME280;19112;51.076;3.706;2022-09-09T03:53:42;100194.16;;;15.19;97.12
32735;BME280;19112;51.076;3.706;2022-09-09T03:56:08;100449.69;;;16.72;96.64
32735;BME280;19112;51.076;3.706;2022-09-09T03:58:35;100488.59;;;16.95;96.96
32735;BME280;19112;51.076;3.706;2022-09-09T04:01:13;100391.28;;;16.42;97.03
32735;BME280;19112;51.076;3.706;2022-09-09T04:03:40;100398.34;;;16.46;96.25
32735;BME280;19112;51.076;3.706;2022-09-09T04:06:08;100405.44;;;16.53;95.86
32735;BME280;19112;51.076;3.706;2022-09-09T04:08:35;100187.97;;;15.23;95.57
32735;BME280;19112;51.076;3.706;2022-09-09T04:11:02;100286.03;;;15.70;95.88
32735;BME280;19112;51.076;3.706;2022-09-09T04:13:36;100187.94;;;15.12;95.89
32735;BME280;19112;51.076;3.706;2022-09-09T04:16:04;100203.88;;;15.29;95.99
32735;BME280;19112;51.076;3.706;2022-09-09T04:18:30;100287.84;;;15.81;96.20
32735;BME280;19112;51.076;3.706;2022-09-09T04:20:56;100410.72;;;16.55;96.45
32735;BME280;19112;51.076;3.706;2022-09-09T04:23:24;100379.78;;;16.40;96.23
32735;BME280;19112;51.076;3.706;2022-09-09T04:25:53;100353.25;;;16.23;95.00
32735;BME280;19112;51.076;3.706;2022-09-09T04:28:21;100192.44;;;15.29;96.05
32735;BME280;19112;51.076;3.706;2022-09-09T04:30:47;100300.22;;;15.83;94.56
32735;BME280;19112;51.076;3.706;2022-09-09T04:33:14;100455.88;;;16.85;96.46
32735;BME280;19112;51.076;3.706;2022-09-09T04:35:48;100385.09;;;16.41;96.81
32735;BME280;19112;51.076;3.706;2022-09-09T04:38:16;99978.75;;;14.02;96.41
32735;BME280;19112;51.076;3.706;2022-09-09T04:40:50;100363.88;;;16.28;97.29
32735;BME280;19112;51.076;3.706;2022-09-09T04:43:17;100393.94;;;16.49;97.32
32735;BME280;19112;51.076;3.706;2022-09-09T04:45:48;100189.78;;;15.29;97.01
32735;BME280;19112;51.076;3.706;2022-09-09T04:48:14;100385.97;;;16.40;96.84
32735;BME280;19112;51.076;3.706;2022-09-09T04:50:40;100203.88;;;15.38;96.88
32735;BME280;19112;51.076;3.706;2022-09-09T04:53:06;100383.31;;;16.33;96.95
32735;BME280;19112;51.076;3.706;2022-09-09T04:55:33;99948.75;;;13.89;96.99
32735;BME280;19112;51.076;3.706;2022-09-09T04:58:05;100309.06;;;16.01;95.76
32735;BME280;19112;51.076;3.706;2022-09-09T05:00:33;100302.88;;;15.94;96.58
32735;BME280;19112;51.076;3.706;2022-09-09T05:03:03;100192.41;;;15.32;96.87
32735;BME280;19112;51.076;3.706;2022-09-09T05:05:30;99965.56;;;14.02;96.55
32735;BME280;19112;51.076;3.706;2022-09-09T05:08:02;100476.19;;;16.86;97.17
32735;BME280;19112;51.076;3.706;2022-09-09T05:10:28;100340.88;;;16.19;96.99
32735;BME280;19112;51.076;3.706;2022-09-09T05:12:54;100293.19;;;15.94;97.03
32735;BME280;19112;51.076;3.706;2022-09-09T05:15:20;100367.44;;;16.36;95.29
32735;BME280;19112;51.076;3.706;2022-09-09T05:17:46;100433.75;;;16.82;96.52
32735;BME280;19112;51.076;3.706;2022-09-09T05:20:13;100177.44;;;15.29;96.83
32735;BME280;19112;51.076;3.706;2022-09-09T05:22:39;100178.31;;;15.33;96.52
32735;BME280;19112;51.076;3.706;2022-09-09T05:25:06;100412.50;;;16.63;97.00
32735;BME280;19112;51.076;3.706;2022-09-09T05:27:34;100440.84;;;16.84;97.04
32735;BME280;19112;51.076;3.706;2022-09-09T05:30:00;100264.91;;;15.86;97.37
32735;BME280;19112;51.076;3.706;2022-09-09T05:32:26;100337.38;;;16.34;96.85
32735;BME280;19112;51.076;3.706;2022-09-09T05:34:52;100303.81;;;16.16;96.91
32735;BME280;19112;51.076;3.706;2022-09-09T05:37:18;100397.47;;;16.67;96.96
32735;BME280;19112;51.076;3.706;2022-09-09T05:39:44;100338.28;;;16.37;96.95
32735;BME280;19112;51.076;3.706;2022-09-09T05:42:10;100428.47;;;16.82;97.53
32735;BME280;19112;51.076;3.706;2022-09-09T05:44:36;100168.63;;;15.38;97.25
32735;BME280;19112;51.076;3.706;2022-09-09T05:47:03;100176.59;;;15.45;96.92
32735;BME280;19112;51.076;3.706;2022-09-09T05:49:28;100433.78;;;16.95;97.21
32735;BME280;19112;51.076;3.706;2022-09-09T05:51:54;100170.41;;;15.48;97.45
32735;BME280;19112;51.076;3.706;2022-09-09T05:54:20;100293.22;;;16.11;98.02
32735;BME280;19112;51.076;3.706;2022-09-09T05:56:46;100420.53;;;16.94;98.42
32735;BME280;19112;51.076;3.706;2022-09-09T05:59:12;100433.78;;;16.94;98.69
32735;BME280;19112;51.076;3.706;2022-09-09T06:01:38;100413.44;;;16.82;98.81
32735;BME280;19112;51.076;3.706;2022-09-09T06:04:06;100135.09;;;15.28;97.53
32735;BME280;19112;51.076;3.706;2022-09-09T06:06:35;99844.91;;;13.66;96.89
32735;BME280;19112;51.076;3.706;2022-09-09T06:09:03;100266.75;;;16.14;97.12
32735;BME280;19112;51.076;3.706;2022-09-09T06:11:33;100419.63;;;16.96;97.38
32735;BME280;19112;51.076;3.706;2022-09-09T06:13:59;100227.84;;;15.80;97.23
32735;BME280;19112;51.076;3.706;2022-09-09T06:16:27;100179.25;;;15.59;96.96
32735;BME280;19112;51.076;3.706;2022-09-09T06:18:55;100246.41;;;15.95;97.23
32735;BME280;19112;51.076;3.706;2022-09-09T06:21:31;100426.69;;;17.08;96.98
32735;BME280;19112;51.076;3.706;2022-09-09T06:23:58;100375.41;;;16.68;97.28
32735;BME280;19112;51.076;3.706;2022-09-09T06:26:30;100267.59;;;16.00;97.27
32735;BME280;19112;51.076;3.706;2022-09-09T06:28:57;100313.53;;;16.34;98.27
32735;BME280;19112;51.076;3.706;2022-09-09T06:31:26;99999.13;;;14.43;98.47
32735;BME280;19112;51.076;3.706;2022-09-09T06:33:57;100298.50;;;16.19;99.22
32735;BME280;19112;51.076;3.706;2022-09-09T06:36:27;100304.69;;;16.29;99.16
32735;BME280;19112;51.076;3.706;2022-09-09T06:38:53;100329.44;;;16.37;99.43
32735;BME280;19112;51.076;3.706;2022-09-09T06:41:23;100399.31;;;16.85;99.37
32735;BME280;19112;51.076;3.706;2022-09-09T06:43:49;100174.03;;;15.73;99.29
32735;BME280;19112;51.076;3.706;2022-09-09T06:46:18;100413.44;;;17.17;99.39
32735;BME280;19112;51.076;3.706;2022-09-09T06:48:45;100376.31;;;16.99;99.61
32735;BME280;19112;51.076;3.706;2022-09-09T06:51:19;100388.69;;;17.12;99.08
32735;BME280;19112;51.076;3.706;2022-09-09T06:53:50;100348.91;;;16.88;99.86
32735;BME280;19112;51.076;3.706;2022-09-09T06:56:34;100401.88;;;17.46;99.05
32735;BME280;19112;51.076;3.706;2022-09-09T06:59:04;100368.34;;;17.31;99.65
32735;BME280;19112;51.076;3.706;2022-09-09T07:01:33;100372.75;;;17.27;98.98
32735;BME280;19112;51.076;3.706;2022-09-09T07:04:00;100414.28;;;17.53;99.24
32735;BME280;19112;51.076;3.706;2022-09-09T07:06:33;100406.31;;;17.47;99.32
32735;BME280;19112;51.076;3.706;2022-09-09T07:09:08;100195.19;;;16.49;100.00
32735;BME280;19112;51.076;3.706;2022-09-09T07:11:48;100391.19;;;17.83;100.00
32735;BME280;19112;51.076;3.706;2022-09-09T07:14:15;100308.13;;;17.45;100.00
32735;BME280;19112;51.076;3.706;2022-09-09T07:16:45;100093.63;;;16.40;100.00
32735;BME280;19112;51.076;3.706;2022-09-09T07:19:12;100060.13;;;16.33;100.00
32735;BME280;19112;51.076;3.706;2022-09-09T07:21:38;100248.88;;;17.42;99.09
32735;BME280;19112;51.076;3.706;2022-09-09T07:24:06;100286.81;;;17.64;98.92
32735;BME280;19112;51.076;3.706;2022-09-09T07:26:36;99974.63;;;15.98;100.00
32735;BME280;19112;51.076;3.706;2022-09-09T07:29:03;100324.66;;;18.10;100.00
32735;BME280;19112;51.076;3.706;2022-09-09T07:31:32;100186.03;;;17.50;100.00
32735;BME280;19112;51.076;3.706;2022-09-09T07:33:59;100288.34;;;18.11;99.14
32735;BME280;19112;51.076;3.706;2022-09-09T07:36:37;99786.88;;;15.42;100.00
32735;BME280;19112;51.076;3.706;2022-09-09T07:39:11;100401.03;;;19.14;100.00
32735;BME280;19112;51.076;3.706;2022-09-09T07:41:42;100355.03;;;19.00;99.61
32735;BME280;19112;51.076;3.706;2022-09-09T07:44:12;100136.28;;;17.83;99.55
32735;BME280;19112;51.076;3.706;2022-09-09T07:46:39;100428.19;;;19.48;96.87
32735;BME280;19112;51.076;3.706;2022-09-09T07:49:05;99799.81;;;16.09;95.20
32735;BME280;19112;51.076;3.706;2022-09-09T07:51:36;100161.81;;;18.00;93.97
32735;BME280;19112;51.076;3.706;2022-09-09T07:54:08;100241.19;;;18.37;94.26
32735;BME280;19112;51.076;3.706;2022-09-09T07:56:35;100400.06;;;19.20;92.74
32735;BME280;19112;51.076;3.706;2022-09-09T07:59:02;100401.13;;;19.02;93.29
32735;BME280;19112;51.076;3.706;2022-09-09T08:01:36;100123.34;;;17.27;92.32
32735;BME280;19112;51.076;3.706;2022-09-09T08:04:07;100301.53;;;18.27;93.34
32735;BME280;19112;51.076;3.706;2022-09-09T08:06:39;100327.22;;;18.25;93.59
32735;BME280;19112;51.076;3.706;2022-09-09T08:09:08;100255.75;;;17.83;93.10
32735;BME280;19112;51.076;3.706;2022-09-09T08:11:34;100359.06;;;18.35;93.64
32735;BME280;19112;51.076;3.706;2022-09-09T08:14:02;100303.53;;;17.90;93.63
32735;BME280;19112;51.076;3.706;2022-09-09T08:16:32;100235.63;;;17.39;93.53
32735;BME280;19112;51.076;3.706;2022-09-09T08:18:58;100218.09;;;16.99;93.76
32735;BME280;19112;51.076;3.706;2022-09-09T08:21:28;100352.28;;;17.72;94.43
32735;BME280;19112;51.076;3.706;2022-09-09T08:23:56;100255.19;;;17.02;94.66
32735;BME280;19112;51.076;3.706;2022-09-09T08:26:35;100431.84;;;18.04;94.38
32735;BME280;19112;51.076;3.706;2022-09-09T08:29:03;100284.34;;;17.18;94.95
32735;BME280;19112;51.076;3.706;2022-09-09T08:31:43;100155.47;;;16.48;95.61
32735;BME280;19112;51.076;3.706;2022-09-09T08:34:10;100206.66;;;16.76;95.21
32735;BME280;19112;51.076;3.706;2022-09-09T08:36:40;100226.09;;;16.84;94.80
32735;BME280;19112;51.076;3.706;2022-09-09T08:39:08;99943.84;;;15.13;94.44
32735;BME280;19112;51.076;3.706;2022-09-09T08:50:26;100450.41;;;18.14;96.72
32735;BME280;19112;51.076;3.706;2022-09-09T08:53:20;100354.06;;;17.66;95.99
32735;BME280;19112;51.076;3.706;2022-09-09T08:55:52;100447.72;;;18.15;95.93
32735;BME280;19112;51.076;3.706;2022-09-09T08:58:34;100259.59;;;17.10;95.47
32735;BME280;19112;51.076;3.706;2022-09-09T09:04:36;100429.13;;;18.15;95.73
32735;BME280;19112;51.076;3.706;2022-09-09T09:12:51;100242.75;;;17.27;94.84
32735;BME280;19112;51.076;3.706;2022-09-09T09:15:23;100263.03;;;17.39;94.38
32735;BME280;19112;51.076;3.706;2022-09-09T09:17:50;100323.06;;;17.82;95.14
32735;BME280;19112;51.076;3.706;2022-09-09T09:20:23;100455.38;;;18.86;96.53
32735;BME280;19112;51.076;3.706;2022-09-09T09:22:52;100397.94;;;18.51;95.39
32735;BME280;19112;51.076;3.706;2022-09-09T09:25:23;100228.31;;;17.87;96.35
32735;BME280;19112;51.076;3.706;2022-09-09T09:28:21;100457.69;;;19.28;94.21
32735;BME280;19112;51.076;3.706;2022-09-09T09:31:10;100334.91;;;18.62;91.35
32735;BME280;19112;51.076;3.706;2022-09-09T09:33:55;100315.44;;;18.62;89.90
32735;BME280;19112;51.076;3.706;2022-09-09T09:36:45;100434.44;;;19.43;91.75
32735;BME280;19112;51.076;3.706;2022-09-09T09:39:27;100273.81;;;18.59;90.90
32735;BME280;19112;51.076;3.706;2022-09-09T09:41:54;100482.22;;;19.66;87.55
32735;BME280;19112;51.076;3.706;2022-09-09T09:44:31;100488.31;;;19.75;88.01
32735;BME280;19112;51.076;3.706;2022-09-09T09:47:16;100392.16;;;19.12;87.84
32735;BME280;19112;51.076;3.706;2022-09-09T09:49:59;100497.28;;;19.65;87.27
32735;BME280;19112;51.076;3.706;2022-09-09T09:52:32;99934.72;;;16.37;82.68
32735;BME280;19112;51.076;3.706;2022-09-09T09:55:03;100457.47;;;19.48;86.70
32735;BME280;19112;51.076;3.706;2022-09-09T09:57:33;100514.03;;;19.79;86.83
32735;BME280;19112;51.076;3.706;2022-09-09T10:02:41;100281.88;;;18.47;84.72
32735;BME280;19112;51.076;3.706;2022-09-09T10:05:22;100497.03;;;19.93;82.95
32735;BME280;19112;51.076;3.706;2022-09-09T10:08:11;100457.09;;;19.89;82.87
32735;BME280;19112;51.076;3.706;2022-09-09T10:19:34;100516.69;;;20.59;83.30
32735;BME280;19112;51.076;3.706;2022-09-09T10:22:33;100284.66;;;19.28;83.03
32735;BME280;19112;51.076;3.706;2022-09-09T10:31:21;100493.63;;;20.54;81.65
32735;BME280;19112;51.076;3.706;2022-09-09T10:34:30;100541.44;;;20.72;81.56
32735;BME280;19112;51.076;3.706;2022-09-09T10:37:11;100444.22;;;20.24;81.19
32735;BME280;19112;51.076;3.706;2022-09-09T10:39:42;100422.75;;;20.34;80.63
32735;BME280;19112;51.076;3.706;2022-09-09T10:42:16;100487.59;;;21.03;78.39
32735;BME280;19112;51.076;3.706;2022-09-09T10:47:46;100543.56;;;21.66;77.71
32735;BME280;19112;51.076;3.706;2022-09-09T10:50:54;100465.84;;;21.27;73.61
32735;BME280;19112;51.076;3.706;2022-09-09T10:56:15;100509.84;;;21.59;73.65
32735;BME280;19112;51.076;3.706;2022-09-09T10:58:50;100007.09;;;18.55;74.41
32735;BME280;19112;51.076;3.706;2022-09-09T11:04:24;100379.28;;;20.89;74.60
32735;BME280;19112;51.076;3.706;2022-09-09T11:06:55;100446.22;;;21.30;74.01
32735;BME280;19112;51.076;3.706;2022-09-09T11:09:33;100540.03;;;21.64;73.90
32735;BME280;19112;51.076;3.706;2022-09-09T11:12:02;100236.09;;;20.36;73.45
32735;BME280;19112;51.076;3.706;2022-09-09T11:17:42;100341.25;;;21.25;72.60
32735;BME280;19112;51.076;3.706;2022-09-09T11:20:12;100369.88;;;21.66;71.86
32735;BME280;19112;51.076;3.706;2022-09-09T11:23:05;100557.50;;;22.76;70.82
32735;BME280;19112;51.076;3.706;2022-09-09T11:25:57;100411.75;;;22.09;70.95
32735;BME280;19112;51.076;3.706;2022-09-09T11:34:44;100530.94;;;22.67;70.61
32735;BME280;19112;51.076;3.706;2022-09-09T11:42:48;100469.03;;;22.82;69.08
32735;BME280;19112;51.076;3.706;2022-09-09T11:45:25;100385.31;;;22.38;66.12
32735;BME280;19112;51.076;3.706;2022-09-09T11:48:03;100449.56;;;22.75;67.27
32735;BME280;19112;51.076;3.706;2022-09-09T11:50:37;100396.78;;;22.43;67.65
32735;BME280;19112;51.076;3.706;2022-09-09T11:53:22;100532.88;;;23.00;67.90
32735;BME280;19112;51.076;3.706;2022-09-09T11:56:42;100479.88;;;22.76;65.87
32735;BME280;19112;51.076;3.706;2022-09-09T12:02:23;100575.78;;;23.36;66.06
32735;BME280;19112;51.076;3.706;2022-09-09T12:05:11;100545.75;;;23.23;64.92
32735;BME280;19112;51.076;3.706;2022-09-09T12:07:52;100555.91;;;23.46;65.91
32735;BME280;19112;51.076;3.706;2022-09-09T12:10:35;100510.66;;;23.33;62.51
32735;BME280;19112;51.076;3.706;2022-09-09T12:13:28;100595.00;;;23.92;63.91
32735;BME280;19112;51.076;3.706;2022-09-09T12:15:57;100528.50;;;23.35;62.93
32735;BME280;19112;51.076;3.706;2022-09-09T12:18:41;100565.75;;;23.46;65.21
32735;BME280;19112;51.076;3.706;2022-09-09T12:21:48;100559.72;;;23.36;66.20
32735;BME280;19112;51.076;3.706;2022-09-09T12:24:35;100602.66;;;23.72;65.82
32735;BME280;19112;51.076;3.706;2022-09-09T12:27:15;100553.94;;;23.55;65.01
32735;BME280;19112;51.076;3.706;2022-09-09T12:29:52;100461.06;;;23.16;64.31
32735;BME280;19112;51.076;3.706;2022-09-09T12:32:24;100520.03;;;23.52;63.08
32735;BME280;19112;51.076;3.706;2022-09-09T12:35:00;100592.09;;;23.64;64.78
32735;BME280;19112;51.076;3.706;2022-09-09T12:37:51;100467.25;;;22.81;64.47
32735;BME280;19112;51.076;3.706;2022-09-09T12:40:24;100585.66;;;23.73;64.33
32735;BME280;19112;51.076;3.706;2022-09-09T12:42:50;100587.19;;;23.83;61.14
32735;BME280;19112;51.076;3.706;2022-09-09T12:45:20;100426.84;;;22.93;64.67
32735;BME280;19112;51.076;3.706;2022-09-09T12:48:07;100361.13;;;22.41;65.54
32735;BME280;19112;51.076;3.706;2022-09-09T12:50:49;100517.94;;;23.29;63.66
32735;BME280;19112;51.076;3.706;2022-09-09T12:53:36;100601.03;;;23.26;64.14
32735;BME280;19112;51.076;3.706;2022-09-09T12:56:08;100568.59;;;22.99;65.06
32735;BME280;19112;51.076;3.706;2022-09-09T12:58:37;100614.44;;;23.26;63.99
32735;BME280;19112;51.076;3.706;2022-09-09T13:01:04;100420.66;;;22.12;64.26
32735;BME280;19112;51.076;3.706;2022-09-09T13:03:32;100460.06;;;22.44;64.95
32735;BME280;19112;51.076;3.706;2022-09-09T13:06:12;100386.47;;;22.25;64.16
32735;BME280;19112;51.076;3.706;2022-09-09T13:08:39;100636.47;;;23.39;63.80
32735;BME280;19112;51.076;3.706;2022-09-09T13:11:42;100603.25;;;23.46;66.15
32735;BME280;19112;51.076;3.706;2022-09-09T13:14:30;100601.13;;;23.60;65.87
32735;BME280;19112;51.076;3.706;2022-09-09T13:17:02;100469.06;;;22.81;66.01
32735;BME280;19112;51.076;3.706;2022-09-09T13:19:38;100602.66;;;23.72;66.76
32735;BME280;19112;51.076;3.706;2022-09-09T13:22:26;100596.16;;;23.82;67.13
32735;BME280;19112;51.076;3.706;2022-09-09T13:27:41;100563.03;;;23.83;66.43
32735;BME280;19112;51.076;3.706;2022-09-09T13:30:34;100607.91;;;24.11;66.51
32735;BME280;19112;51.076;3.706;2022-09-09T13:35:44;100610.53;;;24.14;60.66
32735;BME280;19112;51.076;3.706;2022-09-09T13:38:14;100349.03;;;22.64;63.09
32735;BME280;19112;51.076;3.706;2022-09-09T13:40:52;100526.50;;;23.79;63.38
32735;BME280;19112;51.076;3.706;2022-09-09T13:43:22;100211.69;;;21.90;62.14
32735;BME280;19112;51.076;3.706;2022-09-09T13:46:04;100530.03;;;23.81;60.53
32735;BME280;19112;51.076;3.706;2022-09-09T13:48:31;100593.41;;;24.18;59.91
32735;BME280;19112;51.076;3.706;2022-09-09T13:51:04;100547.53;;;23.94;59.73
32735;BME280;19112;51.076;3.706;2022-09-09T13:53:31;100489.91;;;23.42;61.24
32735;BME280;19112;51.076;3.706;2022-09-09T13:55:58;100473.94;;;23.38;60.97
32735;BME280;19112;51.076;3.706;2022-09-09T13:58:24;100424.63;;;23.11;57.37
32735;BME280;19112;51.076;3.706;2022-09-09T14:00:52;100492.41;;;23.48;59.99
32735;BME280;19112;51.076;3.706;2022-09-09T14:03:19;100549.69;;;23.80;60.69
32735;BME280;19112;51.076;3.706;2022-09-09T14:05:45;100616.66;;;24.17;59.34
32735;BME280;19112;51.076;3.706;2022-09-09T14:08:22;100507.09;;;23.34;61.18
32735;BME280;19112;51.076;3.706;2022-09-09T14:10:48;100225.47;;;21.72;60.71
32735;BME280;19112;51.076;3.706;2022-09-09T14:13:14;100378.94;;;22.42;59.73
32735;BME280;19112;51.076;3.706;2022-09-09T14:15:41;100590.53;;;23.54;60.73
32735;BME280;19112;51.076;3.706;2022-09-09T14:18:11;100561.56;;;23.33;62.16
32735;BME280;19112;51.076;3.706;2022-09-09T14:20:38;100436.09;;;22.40;62.79
32735;BME280;19112;51.076;3.706;2022-09-09T14:23:04;100618.84;;;23.67;62.79
32735;BME280;19112;51.076;3.706;2022-09-09T14:25:31;100617.00;;;23.71;62.41
32735;BME280;19112;51.076;3.706;2022-09-09T14:27:57;100400.84;;;22.60;60.30
32735;BME280;19112;51.076;3.706;2022-09-09T14:30:22;100551.66;;;23.73;61.91
32735;BME280;19112;51.076;3.706;2022-09-09T14:32:48;100352.59;;;22.63;59.36
32735;BME280;19112;51.076;3.706;2022-09-09T14:35:14;100141.47;;;21.47;58.27
32735;BME280;19112;51.076;3.706;2022-09-09T14:37:40;100590.41;;;23.97;60.13
32735;BME280;19112;51.076;3.706;2022-09-09T14:40:06;100436.56;;;22.97;59.86
32735;BME280;19112;51.076;3.706;2022-09-09T14:42:32;100602.88;;;23.97;57.38
32735;BME280;19112;51.076;3.706;2022-09-09T14:44:59;100642.50;;;23.86;59.63
32735;BME280;19112;51.076;3.706;2022-09-09T14:47:25;100583.06;;;22.92;61.57
32735;BME280;19112;51.076;3.706;2022-09-09T14:49:51;100367.69;;;20.90;71.95
32735;BME280;19112;51.076;3.706;2022-09-09T14:52:18;100421.53;;;20.61;75.85
32735;BME280;19112;51.076;3.706;2022-09-09T14:54:44;100518.84;;;20.96;76.58
32735;BME280;19112;51.076;3.706;2022-09-09T14:57:10;100594.56;;;20.87;80.45
32735;BME280;19112;51.076;3.706;2022-09-09T14:59:35;100405.00;;;19.62;81.82
32735;BME280;19112;51.076;3.706;2022-09-09T15:02:01;100342.59;;;19.02;83.97
32735;BME280;19112;51.076;3.706;2022-09-09T15:04:29;100109.91;;;17.58;85.52
32735;BME280;19112;51.076;3.706;2022-09-09T15:06:55;100633.13;;;20.63;87.45
32735;BME280;19112;51.076;3.706;2022-09-09T15:09:21;100350.56;;;19.03;87.59
32735;BME280;19112;51.076;3.706;2022-09-09T15:11:47;100174.25;;;17.92;88.49